sensor_id;sensor_type;location;lat;lon;timestamp;P1;durP1;ratioP1;P2;durP2;ratioP2
6661;SDS011;3367;48.714;8.994;2023-04-15T00:00:05;7.77;;;3.30;;
6661;SDS011;3367;48.714;8.994;2023-04-15T00:02:32;9.63;;;3.50;;
6661;SDS011;3367;48.714;8.994;2023-04-15T00:04:59;10.47;;;4.10;;
6661;SDS011;3367;48.714;8.994;2023-04-15T00:07:27;5.50;;;2.73;;
6661;SDS011;3367;48.714;8.994;2023-04-15T00:09:54;4.30;;;3.27;;
6661;SDS011;3367;48.714;8.994;2023-04-15T00:12:21;6.60;;;3.27;;
6661;SDS011;3367;48.714;8.994;2023-04-15T00:14:48;4.20;;;2.70;;
6661;SDS011;3367;48.714;8.994;2023-04-15T00:17:16;6.70;;;3.10;;
6661;SDS011;3367;48.714;8.994;2023-04-15T00:19:43;7.63;;;3.30;;
6661;SDS011;3367;48.714;8.994;2023-04-15T00:22:09;3.50;;;2.80;;
6661;SDS011;3367;48.714;8.994;2023-04-15T00:24:38;3.80;;;3.30;;
6661;SDS011;3367;48.714;8.994;2023-04-15T00:27:05;4.90;;;3.27;;
6661;SDS011;3367;48.714;8.994;2023-04-15T00:29:32;4.30;;;2.87;;
6661;SDS011;3367;48.714;8.994;2023-04-15T00:31:59;4.67;;;3.30;;
6661;SDS011;3367;48.714;8.994;2023-04-15T00:34:26;7.93;;;3.60;;
6661;SDS011;3367;48.714;8.994;2023-04-15T00:36:53;5.20;;;3.67;;
6661;SDS011;3367;48.714;8.994;2023-04-15T00:39:21;6.43;;;3.07;;
6661;SDS011;3367;48.714;8.994;2023-04-15T00:41:49;4.07;;;3.33;;
6661;SDS011;3367;48.714;8.994;2023-04-15T00:44:16;4.23;;;2.80;;
6661;SDS011;3367;48.714;8.994;2023-04-15T00:46:44;7.73;;;2.93;;
6661;SDS011;3367;48.714;8.994;2023-04-15T00:49:11;3.23;;;2.93;;
6661;SDS011;3367;48.714;8.994;2023-04-15T00:51:38;6.03;;;3.23;;
6661;SDS011;3367;48.714;8.994;2023-04-15T00:54:05;3.07;;;2.73;;
6661;SDS011;3367;48.714;8.994;2023-04-15T00:56:33;7.63;;;2.70;;
6661;SDS011;3367;48.714;8.994;2023-04-15T00:59:03;3.93;;;2.27;;
6661;SDS011;3367;48.714;8.994;2023-04-15T01:01:32;5.83;;;2.97;;
6661;SDS011;3367;48.714;8.994;2023-04-15T01:04:00;5.27;;;3.07;;
6661;SDS011;3367;48.714;8.994;2023-04-15T01:06:27;3.27;;;2.70;;
6661;SDS011;3367;48.714;8.994;2023-04-15T01:08:54;4.20;;;3.00;;
6661;SDS011;3367;48.714;8.994;2023-04-15T01:11:21;4.37;;;2.70;;
6661;SDS011;3367;48.714;8.994;2023-04-15T01:13:49;5.33;;;2.90;;
6661;SDS011;3367;48.714;8.994;2023-04-15T01:16:18;14.07;;;2.90;;
6661;SDS011;3367;48.714;8.994;2023-04-15T01:18:44;3.80;;;2.63;;
6661;SDS011;3367;48.714;8.994;2023-04-15T01:21:11;5.17;;;3.13;;
6661;SDS011;3367;48.714;8.994;2023-04-15T01:23:38;4.50;;;2.83;;
6661;SDS011;3367;48.714;8.994;2023-04-15T01:26:07;11.33;;;3.57;;
6661;SDS011;3367;48.714;8.994;2023-04-15T01:28:34;4.20;;;2.30;;
6661;SDS011;3367;48.714;8.994;2023-04-15T01:31:08;5.63;;;3.30;;
6661;SDS011;3367;48.714;8.994;2023-04-15T01:33:36;4.23;;;2.87;;
6661;SDS011;3367;48.714;8.994;2023-04-15T01:36:04;4.10;;;2.50;;
6661;SDS011;3367;48.714;8.994;2023-04-15T01:38:32;3.57;;;3.17;;
6661;SDS011;3367;48.714;8.994;2023-04-15T01:41:00;8.03;;;2.83;;
6661;SDS011;3367;48.714;8.994;2023-04-15T01:43:28;4.37;;;2.60;;
6661;SDS011;3367;48.714;8.994;2023-04-15T01:45:54;7.00;;;3.03;;
6661;SDS011;3367;48.714;8.994;2023-04-15T01:48:21;2.67;;;2.47;;
6661;SDS011;3367;48.714;8.994;2023-04-15T01:50:48;5.60;;;2.80;;
6661;SDS011;3367;48.714;8.994;2023-04-15T01:53:15;7.63;;;3.40;;
6661;SDS011;3367;48.714;8.994;2023-04-15T01:55:42;2.97;;;2.43;;
6661;SDS011;3367;48.714;8.994;2023-04-15T01:58:09;4.17;;;2.60;;
6661;SDS011;3367;48.714;8.994;2023-04-15T02:00:37;7.13;;;2.73;;
6661;SDS011;3367;48.714;8.994;2023-04-15T02:03:04;6.47;;;2.87;;
6661;SDS011;3367;48.714;8.994;2023-04-15T02:05:31;8.13;;;3.10;;
6661;SDS011;3367;48.714;8.994;2023-04-15T02:07:58;4.20;;;2.50;;
6661;SDS011;3367;48.714;8.994;2023-04-15T02:10:24;4.47;;;3.00;;
6661;SDS011;3367;48.714;8.994;2023-04-15T02:12:51;13.73;;;2.80;;
6661;SDS011;3367;48.714;8.994;2023-04-15T02:15:18;7.03;;;2.60;;
6661;SDS011;3367;48.714;8.994;2023-04-15T02:17:46;4.23;;;2.73;;
6661;SDS011;3367;48.714;8.994;2023-04-15T02:20:15;5.00;;;2.40;;
6661;SDS011;3367;48.714;8.994;2023-04-15T02:22:42;3.90;;;2.70;;
6661;SDS011;3367;48.714;8.994;2023-04-15T02:25:09;4.03;;;2.80;;
6661;SDS011;3367;48.714;8.994;2023-04-15T02:27:35;3.70;;;2.93;;
6661;SDS011;3367;48.714;8.994;2023-04-15T02:30:02;4.70;;;3.17;;
6661;SDS011;3367;48.714;8.994;2023-04-15T02:32:29;4.77;;;3.20;;
6661;SDS011;3367;48.714;8.994;2023-04-15T02:34:58;10.63;;;3.50;;
6661;SDS011;3367;48.714;8.994;2023-04-15T02:37:28;9.03;;;3.60;;
6661;SDS011;3367;48.714;8.994;2023-04-15T02:39:55;5.63;;;3.40;;
6661;SDS011;3367;48.714;8.994;2023-04-15T02:42:22;3.70;;;3.10;;
6661;SDS011;3367;48.714;8.994;2023-04-15T02:44:51;3.13;;;2.67;;
6661;SDS011;3367;48.714;8.994;2023-04-15T02:47:18;5.13;;;2.80;;
6661;SDS011;3367;48.714;8.994;2023-04-15T02:49:45;4.30;;;2.80;;
6661;SDS011;3367;48.714;8.994;2023-04-15T02:52:13;3.50;;;3.07;;
6661;SDS011;3367;48.714;8.994;2023-04-15T02:54:40;5.10;;;3.57;;
6661;SDS011;3367;48.714;8.994;2023-04-15T02:57:07;5.57;;;2.73;;
6661;SDS011;3367;48.714;8.994;2023-04-15T02:59:35;6.97;;;3.20;;
6661;SDS011;3367;48.714;8.994;2023-04-15T03:02:03;3.73;;;2.77;;
6661;SDS011;3367;48.714;8.994;2023-04-15T03:04:31;3.83;;;2.97;;
6661;SDS011;3367;48.714;8.994;2023-04-15T03:06:58;5.10;;;2.60;;
6661;SDS011;3367;48.714;8.994;2023-04-15T03:09:27;5.63;;;3.20;;
6661;SDS011;3367;48.714;8.994;2023-04-15T03:11:54;3.57;;;2.70;;
6661;SDS011;3367;48.714;8.994;2023-04-15T03:14:20;4.40;;;3.13;;
6661;SDS011;3367;48.714;8.994;2023-04-15T03:16:47;4.90;;;3.17;;
6661;SDS011;3367;48.714;8.994;2023-04-15T03:19:14;3.57;;;2.77;;
6661;SDS011;3367;48.714;8.994;2023-04-15T03:21:41;3.30;;;2.93;;
6661;SDS011;3367;48.714;8.994;2023-04-15T03:24:08;3.97;;;3.10;;
6661;SDS011;3367;48.714;8.994;2023-04-15T03:26:36;5.47;;;3.00;;
6661;SDS011;3367;48.714;8.994;2023-04-15T03:29:03;3.47;;;2.70;;
6661;SDS011;3367;48.714;8.994;2023-04-15T03:31:29;4.23;;;2.80;;
6661;SDS011;3367;48.714;8.994;2023-04-15T03:33:56;3.57;;;3.27;;
6661;SDS011;3367;48.714;8.994;2023-04-15T03:36:23;4.50;;;3.40;;
6661;SDS011;3367;48.714;8.994;2023-04-15T03:38:50;5.17;;;3.80;;
6661;SDS011;3367;48.714;8.994;2023-04-15T03:41:17;7.33;;;3.03;;
6661;SDS011;3367;48.714;8.994;2023-04-15T03:43:45;4.43;;;3.10;;
6661;SDS011;3367;48.714;8.994;2023-04-15T03:46:12;4.43;;;3.37;;
6661;SDS011;3367;48.714;8.994;2023-04-15T03:48:38;6.00;;;3.90;;
6661;SDS011;3367;48.714;8.994;2023-04-15T03:51:05;3.80;;;3.00;;
6661;SDS011;3367;48.714;8.994;2023-04-15T03:53:32;7.40;;;3.40;;
6661;SDS011;3367;48.714;8.994;2023-04-15T03:55:58;3.10;;;2.83;;
6661;SDS011;3367;48.714;8.994;2023-04-15T03:58:25;5.57;;;2.93;;
6661;SDS011;3367;48.714;8.994;2023-04-15T04:00:53;5.87;;;3.77;;
6661;SDS011;3367;48.714;8.994;2023-04-15T04:03:20;5.70;;;3.70;;
6661;SDS011;3367;48.714;8.994;2023-04-15T04:05:47;7.80;;;3.13;;
6661;SDS011;3367;48.714;8.994;2023-04-15T04:08:13;7.93;;;3.80;;
6661;SDS011;3367;48.714;8.994;2023-04-15T04:10:40;4.50;;;3.13;;
6661;SDS011;3367;48.714;8.994;2023-04-15T04:13:07;9.33;;;3.10;;
6661;SDS011;3367;48.714;8.994;2023-04-15T04:15:34;5.97;;;3.47;;
6661;SDS011;3367;48.714;8.994;2023-04-15T04:18:02;6.03;;;3.60;;
6661;SDS011;3367;48.714;8.994;2023-04-15T04:20:29;4.13;;;3.27;;
6661;SDS011;3367;48.714;8.994;2023-04-15T04:22:56;5.87;;;3.67;;
6661;SDS011;3367;48.714;8.994;2023-04-15T04:25:23;7.93;;;3.23;;
6661;SDS011;3367;48.714;8.994;2023-04-15T04:27:50;4.33;;;2.60;;
6661;SDS011;3367;48.714;8.994;2023-04-15T04:30:16;6.97;;;3.70;;
6661;SDS011;3367;48.714;8.994;2023-04-15T04:32:43;3.53;;;2.70;;
6661;SDS011;3367;48.714;8.994;2023-04-15T04:35:12;3.60;;;2.77;;
6661;SDS011;3367;48.714;8.994;2023-04-15T04:37:38;3.47;;;3.10;;
6661;SDS011;3367;48.714;8.994;2023-04-15T04:40:05;5.87;;;3.50;;
6661;SDS011;3367;48.714;8.994;2023-04-15T04:42:33;5.13;;;3.30;;
6661;SDS011;3367;48.714;8.994;2023-04-15T04:45:00;6.67;;;3.70;;
6661;SDS011;3367;48.714;8.994;2023-04-15T04:47:26;3.33;;;2.93;;
6661;SDS011;3367;48.714;8.994;2023-04-15T04:49:54;5.47;;;3.40;;
6661;SDS011;3367;48.714;8.994;2023-04-15T04:52:22;4.43;;;2.73;;
6661;SDS011;3367;48.714;8.994;2023-04-15T04:54:48;5.13;;;2.60;;
6661;SDS011;3367;48.714;8.994;2023-04-15T04:57:15;5.50;;;2.70;;
6661;SDS011;3367;48.714;8.994;2023-04-15T04:59:42;6.17;;;3.43;;
6661;SDS011;3367;48.714;8.994;2023-04-15T05:02:09;5.73;;;3.20;;
6661;SDS011;3367;48.714;8.994;2023-04-15T05:04:35;7.70;;;3.10;;
6661;SDS011;3367;48.714;8.994;2023-04-15T05:07:02;6.37;;;4.00;;
6661;SDS011;3367;48.714;8.994;2023-04-15T05:09:30;6.20;;;3.10;;
6661;SDS011;3367;48.714;8.994;2023-04-15T05:12:00;4.67;;;3.00;;
6661;SDS011;3367;48.714;8.994;2023-04-15T05:14:26;3.60;;;3.00;;
6661;SDS011;3367;48.714;8.994;2023-04-15T05:16:53;4.73;;;3.47;;
6661;SDS011;3367;48.714;8.994;2023-04-15T05:19:20;10.90;;;4.80;;
6661;SDS011;3367;48.714;8.994;2023-04-15T05:21:46;10.77;;;4.57;;
6661;SDS011;3367;48.714;8.994;2023-04-15T05:24:13;16.63;;;6.53;;
6661;SDS011;3367;48.714;8.994;2023-04-15T05:26:42;9.60;;;3.60;;
6661;SDS011;3367;48.714;8.994;2023-04-15T05:29:08;6.80;;;3.77;;
6661;SDS011;3367;48.714;8.994;2023-04-15T05:31:35;10.40;;;4.20;;
6661;SDS011;3367;48.714;8.994;2023-04-15T05:34:02;6.10;;;3.23;;
6661;SDS011;3367;48.714;8.994;2023-04-15T05:36:29;3.37;;;3.13;;
6661;SDS011;3367;48.714;8.994;2023-04-15T05:38:56;7.60;;;3.70;;
6661;SDS011;3367;48.714;8.994;2023-04-15T05:41:23;4.03;;;3.30;;
6661;SDS011;3367;48.714;8.994;2023-04-15T05:43:51;9.03;;;3.30;;
6661;SDS011;3367;48.714;8.994;2023-04-15T05:46:17;3.40;;;3.07;;
6661;SDS011;3367;48.714;8.994;2023-04-15T05:48:44;3.23;;;2.93;;
6661;SDS011;3367;48.714;8.994;2023-04-15T05:51:11;5.87;;;3.73;;
6661;SDS011;3367;48.714;8.994;2023-04-15T05:53:38;3.77;;;2.57;;
6661;SDS011;3367;48.714;8.994;2023-04-15T05:56:05;5.50;;;2.87;;
6661;SDS011;3367;48.714;8.994;2023-04-15T05:58:32;4.80;;;2.90;;
6661;SDS011;3367;48.714;8.994;2023-04-15T06:01:00;4.13;;;2.90;;
6661;SDS011;3367;48.714;8.994;2023-04-15T06:03:28;8.57;;;2.90;;
6661;SDS011;3367;48.714;8.994;2023-04-15T06:05:54;3.50;;;3.20;;
6661;SDS011;3367;48.714;8.994;2023-04-15T06:08:21;6.43;;;3.10;;
6661;SDS011;3367;48.714;8.994;2023-04-15T06:10:48;6.90;;;2.93;;
6661;SDS011;3367;48.714;8.994;2023-04-15T06:13:15;7.70;;;4.23;;
6661;SDS011;3367;48.714;8.994;2023-04-15T06:15:42;4.90;;;3.23;;
6661;SDS011;3367;48.714;8.994;2023-04-15T06:18:10;5.00;;;3.70;;
6661;SDS011;3367;48.714;8.994;2023-04-15T06:20:37;5.67;;;3.60;;
6661;SDS011;3367;48.714;8.994;2023-04-15T06:23:03;4.80;;;3.17;;
6661;SDS011;3367;48.714;8.994;2023-04-15T06:25:30;4.67;;;3.03;;
6661;SDS011;3367;48.714;8.994;2023-04-15T06:27:58;5.37;;;3.50;;
6661;SDS011;3367;48.714;8.994;2023-04-15T06:30:24;3.90;;;3.53;;
6661;SDS011;3367;48.714;8.994;2023-04-15T06:35:20;7.50;;;3.70;;
6661;SDS011;3367;48.714;8.994;2023-04-15T06:37:47;5.03;;;3.10;;
6661;SDS011;3367;48.714;8.994;2023-04-15T06:40:14;5.50;;;3.20;;
6661;SDS011;3367;48.714;8.994;2023-04-15T06:42:41;7.13;;;2.93;;
6661;SDS011;3367;48.714;8.994;2023-04-15T06:45:08;9.30;;;4.77;;
6661;SDS011;3367;48.714;8.994;2023-04-15T06:47:35;5.23;;;2.80;;
6661;SDS011;3367;48.714;8.994;2023-04-15T06:50:02;4.43;;;2.90;;
6661;SDS011;3367;48.714;8.994;2023-04-15T06:52:30;6.87;;;3.90;;
6661;SDS011;3367;48.714;8.994;2023-04-15T06:54:57;7.83;;;3.50;;
6661;SDS011;3367;48.714;8.994;2023-04-15T06:57:25;7.70;;;3.23;;
6661;SDS011;3367;48.714;8.994;2023-04-15T06:59:52;5.47;;;3.03;;
6661;SDS011;3367;48.714;8.994;2023-04-15T07:02:19;3.33;;;2.90;;
6661;SDS011;3367;48.714;8.994;2023-04-15T07:04:46;9.90;;;3.10;;
6661;SDS011;3367;48.714;8.994;2023-04-15T07:07:13;5.90;;;3.03;;
6661;SDS011;3367;48.714;8.994;2023-04-15T07:09:42;6.00;;;3.17;;
6661;SDS011;3367;48.714;8.994;2023-04-15T07:12:09;7.00;;;3.50;;
6661;SDS011;3367;48.714;8.994;2023-04-15T07:14:36;4.60;;;3.10;;
6661;SDS011;3367;48.714;8.994;2023-04-15T07:17:03;15.60;;;3.37;;
6661;SDS011;3367;48.714;8.994;2023-04-15T07:19:29;7.30;;;3.10;;
6661;SDS011;3367;48.714;8.994;2023-04-15T07:21:56;3.47;;;2.67;;
6661;SDS011;3367;48.714;8.994;2023-04-15T07:24:23;9.10;;;3.53;;
6661;SDS011;3367;48.714;8.994;2023-04-15T07:26:52;5.63;;;2.47;;
6661;SDS011;3367;48.714;8.994;2023-04-15T07:29:19;5.23;;;2.80;;
6661;SDS011;3367;48.714;8.994;2023-04-15T07:31:45;6.13;;;3.33;;
6661;SDS011;3367;48.714;8.994;2023-04-15T07:34:12;8.40;;;4.43;;
6661;SDS011;3367;48.714;8.994;2023-04-15T07:36:39;8.77;;;4.53;;
6661;SDS011;3367;48.714;8.994;2023-04-15T07:39:05;10.47;;;4.90;;
6661;SDS011;3367;48.714;8.994;2023-04-15T07:41:32;3.53;;;2.63;;
6661;SDS011;3367;48.714;8.994;2023-04-15T07:44:00;10.47;;;3.80;;
6661;SDS011;3367;48.714;8.994;2023-04-15T07:46:28;9.73;;;3.60;;
6661;SDS011;3367;48.714;8.994;2023-04-15T07:48:54;6.87;;;3.40;;
6661;SDS011;3367;48.714;8.994;2023-04-15T07:51:21;7.07;;;2.77;;
6661;SDS011;3367;48.714;8.994;2023-04-15T07:53:48;3.90;;;2.23;;
6661;SDS011;3367;48.714;8.994;2023-04-15T07:56:15;8.70;;;5.17;;
6661;SDS011;3367;48.714;8.994;2023-04-15T07:58:42;3.80;;;2.33;;
6661;SDS011;3367;48.714;8.994;2023-04-15T08:01:10;5.43;;;2.87;;
6661;SDS011;3367;48.714;8.994;2023-04-15T08:03:37;4.07;;;2.30;;
6661;SDS011;3367;48.714;8.994;2023-04-15T08:06:04;6.90;;;3.70;;
6661;SDS011;3367;48.714;8.994;2023-04-15T08:08:31;9.03;;;3.80;;
6661;SDS011;3367;48.714;8.994;2023-04-15T08:10:57;5.23;;;2.50;;
6661;SDS011;3367;48.714;8.994;2023-04-15T08:13:25;4.40;;;3.10;;
6661;SDS011;3367;48.714;8.994;2023-04-15T08:15:53;4.63;;;3.47;;
6661;SDS011;3367;48.714;8.994;2023-04-15T08:18:41;4.53;;;2.27;;
6661;SDS011;3367;48.714;8.994;2023-04-15T08:21:08;8.63;;;1.80;;
6661;SDS011;3367;48.714;8.994;2023-04-15T08:23:35;2.50;;;1.73;;
6661;SDS011;3367;48.714;8.994;2023-04-15T08:26:02;2.63;;;1.67;;
6661;SDS011;3367;48.714;8.994;2023-04-15T08:28:29;2.17;;;1.87;;
6661;SDS011;3367;48.714;8.994;2023-04-15T08:30:56;9.43;;;2.43;;
6661;SDS011;3367;48.714;8.994;2023-04-15T08:33:24;2.53;;;1.90;;
6661;SDS011;3367;48.714;8.994;2023-04-15T08:35:50;2.30;;;1.70;;
6661;SDS011;3367;48.714;8.994;2023-04-15T08:38:17;2.90;;;1.90;;
6661;SDS011;3367;48.714;8.994;2023-04-15T08:40:44;3.33;;;2.00;;
6661;SDS011;3367;48.714;8.994;2023-04-15T08:43:12;5.07;;;1.90;;
6661;SDS011;3367;48.714;8.994;2023-04-15T08:45:42;3.63;;;2.03;;
6661;SDS011;3367;48.714;8.994;2023-04-15T08:48:10;3.30;;;1.47;;
6661;SDS011;3367;48.714;8.994;2023-04-15T08:50:42;4.43;;;1.40;;
6661;SDS011;3367;48.714;8.994;2023-04-15T08:53:09;4.40;;;1.53;;
6661;SDS011;3367;48.714;8.994;2023-04-15T08:55:38;2.40;;;1.50;;
6661;SDS011;3367;48.714;8.994;2023-04-15T08:58:08;2.53;;;1.37;;
6661;SDS011;3367;48.714;8.994;2023-04-15T09:00:36;2.60;;;1.40;;
6661;SDS011;3367;48.714;8.994;2023-04-15T09:03:03;3.13;;;1.57;;
6661;SDS011;3367;48.714;8.994;2023-04-15T09:05:31;3.73;;;1.67;;
6661;SDS011;3367;48.714;8.994;2023-04-15T09:07:59;8.37;;;1.83;;
6661;SDS011;3367;48.714;8.994;2023-04-15T09:10:26;2.67;;;1.20;;
6661;SDS011;3367;48.714;8.994;2023-04-15T09:12:53;3.53;;;1.50;;
6661;SDS011;3367;48.714;8.994;2023-04-15T09:15:21;2.63;;;1.60;;
6661;SDS011;3367;48.714;8.994;2023-04-15T09:17:51;2.60;;;1.60;;
6661;SDS011;3367;48.714;8.994;2023-04-15T09:20:18;1.50;;;1.40;;
6661;SDS011;3367;48.714;8.994;2023-04-15T09:22:45;2.27;;;1.43;;
6661;SDS011;3367;48.714;8.994;2023-04-15T09:25:28;3.90;;;1.43;;
6661;SDS011;3367;48.714;8.994;2023-04-15T09:27:56;6.03;;;1.47;;
6661;SDS011;3367;48.714;8.994;2023-04-15T09:30:23;2.93;;;1.37;;
6661;SDS011;3367;48.714;8.994;2023-04-15T09:32:50;4.27;;;1.30;;
6661;SDS011;3367;48.714;8.994;2023-04-15T09:35:17;6.43;;;1.80;;
6661;SDS011;3367;48.714;8.994;2023-04-15T09:37:44;1.73;;;1.63;;
6661;SDS011;3367;48.714;8.994;2023-04-15T09:40:12;2.63;;;1.57;;
6661;SDS011;3367;48.714;8.994;2023-04-15T09:45:22;3.33;;;1.57;;
6661;SDS011;3367;48.714;8.994;2023-04-15T09:47:50;3.33;;;1.60;;
6661;SDS011;3367;48.714;8.994;2023-04-15T09:50:17;2.80;;;1.43;;
6661;SDS011;3367;48.714;8.994;2023-04-15T09:52:45;2.53;;;1.50;;
6661;SDS011;3367;48.714;8.994;2023-04-15T09:55:12;5.20;;;1.37;;
6661;SDS011;3367;48.714;8.994;2023-04-15T09:57:40;3.10;;;1.90;;
6661;SDS011;3367;48.714;8.994;2023-04-15T10:00:10;4.50;;;2.10;;
6661;SDS011;3367;48.714;8.994;2023-04-15T10:02:37;4.40;;;1.93;;
6661;SDS011;3367;48.714;8.994;2023-04-15T10:05:06;4.77;;;1.60;;
6661;SDS011;3367;48.714;8.994;2023-04-15T10:07:35;2.77;;;1.43;;
6661;SDS011;3367;48.714;8.994;2023-04-15T10:10:05;1.63;;;1.40;;
6661;SDS011;3367;48.714;8.994;2023-04-15T10:12:33;3.27;;;1.43;;
6661;SDS011;3367;48.714;8.994;2023-04-15T10:15:03;2.20;;;1.90;;
6661;SDS011;3367;48.714;8.994;2023-04-15T10:17:33;3.73;;;1.53;;
6661;SDS011;3367;48.714;8.994;2023-04-15T10:20:01;3.53;;;1.63;;
6661;SDS011;3367;48.714;8.994;2023-04-15T10:22:29;2.67;;;1.60;;
6661;SDS011;3367;48.714;8.994;2023-04-15T10:24:57;3.63;;;2.07;;
6661;SDS011;3367;48.714;8.994;2023-04-15T10:27:25;4.40;;;1.93;;
6661;SDS011;3367;48.714;8.994;2023-04-15T10:29:52;3.07;;;1.50;;
6661;SDS011;3367;48.714;8.994;2023-04-15T10:32:20;5.60;;;1.93;;
6661;SDS011;3367;48.714;8.994;2023-04-15T10:34:50;5.27;;;1.80;;
6661;SDS011;3367;48.714;8.994;2023-04-15T10:37:19;1.90;;;1.20;;
6661;SDS011;3367;48.714;8.994;2023-04-15T10:39:47;4.73;;;1.93;;
6661;SDS011;3367;48.714;8.994;2023-04-15T10:42:15;4.90;;;1.47;;
6661;SDS011;3367;48.714;8.994;2023-04-15T10:44:43;2.30;;;1.53;;
6661;SDS011;3367;48.714;8.994;2023-04-15T11:01:19;4.70;;;2.42;;
6661;SDS011;3367;48.714;8.994;2023-04-15T11:03:47;1.97;;;1.43;;
6661;SDS011;3367;48.714;8.994;2023-04-15T11:06:15;1.73;;;1.63;;
6661;SDS011;3367;48.714;8.994;2023-04-15T11:08:58;3.90;;;2.03;;
6661;SDS011;3367;48.714;8.994;2023-04-15T11:14:31;3.00;;;2.10;;
6661;SDS011;3367;48.714;8.994;2023-04-15T11:17:00;5.57;;;2.70;;
6661;SDS011;3367;48.714;8.994;2023-04-15T11:19:34;5.03;;;2.23;;
6661;SDS011;3367;48.714;8.994;2023-04-15T11:22:05;1.73;;;1.63;;
6661;SDS011;3367;48.714;8.994;2023-04-15T11:24:33;2.50;;;1.73;;
6661;SDS011;3367;48.714;8.994;2023-04-15T11:27:00;4.70;;;1.83;;
6661;SDS011;3367;48.714;8.994;2023-04-15T11:29:28;4.67;;;2.47;;
6661;SDS011;3367;48.714;8.994;2023-04-15T11:32:04;2.33;;;2.13;;
6661;SDS011;3367;48.714;8.994;2023-04-15T11:34:32;2.93;;;2.27;;
6661;SDS011;3367;48.714;8.994;2023-04-15T11:36:59;3.33;;;2.10;;
6661;SDS011;3367;48.714;8.994;2023-04-15T11:39:28;2.50;;;2.30;;
6661;SDS011;3367;48.714;8.994;2023-04-15T11:41:55;2.80;;;2.23;;
6661;SDS011;3367;48.714;8.994;2023-04-15T11:44:22;3.43;;;1.97;;
6661;SDS011;3367;48.714;8.994;2023-04-15T11:46:48;3.00;;;2.60;;
6661;SDS011;3367;48.714;8.994;2023-04-15T11:49:26;5.17;;;2.37;;
6661;SDS011;3367;48.714;8.994;2023-04-15T11:51:54;5.50;;;2.20;;
6661;SDS011;3367;48.714;8.994;2023-04-15T11:54:21;2.63;;;2.20;;
6661;SDS011;3367;48.714;8.994;2023-04-15T11:56:50;4.43;;;2.10;;
6661;SDS011;3367;48.714;8.994;2023-04-15T11:59:18;3.40;;;2.17;;
6661;SDS011;3367;48.714;8.994;2023-04-15T12:01:45;2.50;;;2.07;;
6661;SDS011;3367;48.714;8.994;2023-04-15T12:04:12;7.93;;;2.23;;
6661;SDS011;3367;48.714;8.994;2023-04-15T12:06:42;3.10;;;2.20;;
6661;SDS011;3367;48.714;8.994;2023-04-15T12:09:09;4.30;;;2.77;;
6661;SDS011;3367;48.714;8.994;2023-04-15T12:11:38;3.87;;;2.90;;
6661;SDS011;3367;48.714;8.994;2023-04-15T12:14:20;3.90;;;2.70;;
6661;SDS011;3367;48.714;8.994;2023-04-15T12:16:50;3.83;;;2.37;;
6661;SDS011;3367;48.714;8.994;2023-04-15T12:19:21;4.53;;;2.70;;
6661;SDS011;3367;48.714;8.994;2023-04-15T12:21:51;4.93;;;3.20;;
6661;SDS011;3367;48.714;8.994;2023-04-15T12:24:22;14.37;;;3.73;;
6661;SDS011;3367;48.714;8.994;2023-04-15T12:26:49;7.10;;;3.37;;
6661;SDS011;3367;48.714;8.994;2023-04-15T12:29:17;3.67;;;3.27;;
6661;SDS011;3367;48.714;8.994;2023-04-15T12:31:46;5.87;;;3.57;;
6661;SDS011;3367;48.714;8.994;2023-04-15T12:34:15;8.83;;;3.93;;
6661;SDS011;3367;48.714;8.994;2023-04-15T12:36:44;7.50;;;3.40;;
6661;SDS011;3367;48.714;8.994;2023-04-15T12:39:13;8.70;;;3.80;;
6661;SDS011;3367;48.714;8.994;2023-04-15T12:41:40;5.67;;;3.77;;
6661;SDS011;3367;48.714;8.994;2023-04-15T12:44:07;8.10;;;3.10;;
6661;SDS011;3367;48.714;8.994;2023-04-15T12:46:34;4.33;;;3.13;;
6661;SDS011;3367;48.714;8.994;2023-04-15T12:49:01;3.70;;;2.80;;
6661;SDS011;3367;48.714;8.994;2023-04-15T12:51:28;3.10;;;2.80;;
6661;SDS011;3367;48.714;8.994;2023-04-15T12:53:56;4.13;;;3.03;;
6661;SDS011;3367;48.714;8.994;2023-04-15T12:56:24;3.63;;;3.20;;
6661;SDS011;3367;48.714;8.994;2023-04-15T12:58:51;7.73;;;3.53;;
6661;SDS011;3367;48.714;8.994;2023-04-15T13:01:17;5.50;;;3.03;;
6661;SDS011;3367;48.714;8.994;2023-04-15T13:03:44;3.60;;;3.40;;
6661;SDS011;3367;48.714;8.994;2023-04-15T13:06:12;7.03;;;2.57;;
6661;SDS011;3367;48.714;8.994;2023-04-15T13:08:38;3.77;;;2.93;;
6661;SDS011;3367;48.714;8.994;2023-04-15T13:11:05;3.20;;;2.90;;
6661;SDS011;3367;48.714;8.994;2023-04-15T13:13:33;3.03;;;2.50;;
6661;SDS011;3367;48.714;8.994;2023-04-15T13:16:00;2.90;;;2.70;;
6661;SDS011;3367;48.714;8.994;2023-04-15T13:18:27;3.27;;;3.00;;
6661;SDS011;3367;48.714;8.994;2023-04-15T13:20:55;3.93;;;3.10;;
6661;SDS011;3367;48.714;8.994;2023-04-15T13:23:21;4.97;;;3.03;;
6661;SDS011;3367;48.714;8.994;2023-04-15T13:25:48;3.40;;;3.07;;
6661;SDS011;3367;48.714;8.994;2023-04-15T13:28:15;4.67;;;2.77;;
6661;SDS011;3367;48.714;8.994;2023-04-15T13:30:43;3.90;;;2.80;;
6661;SDS011;3367;48.714;8.994;2023-04-15T13:33:11;3.33;;;2.63;;
6661;SDS011;3367;48.714;8.994;2023-04-15T13:35:38;4.07;;;2.93;;
6661;SDS011;3367;48.714;8.994;2023-04-15T13:38:05;3.17;;;2.87;;
6661;SDS011;3367;48.714;8.994;2023-04-15T13:40:32;5.93;;;2.90;;
6661;SDS011;3367;48.714;8.994;2023-04-15T13:42:58;3.83;;;2.70;;
6661;SDS011;3367;48.714;8.994;2023-04-15T13:45:26;4.03;;;3.30;;
6661;SDS011;3367;48.714;8.994;2023-04-15T13:47:54;3.23;;;3.03;;
6661;SDS011;3367;48.714;8.994;2023-04-15T13:50:21;2.60;;;2.40;;
6661;SDS011;3367;48.714;8.994;2023-04-15T13:52:48;3.93;;;3.40;;
6661;SDS011;3367;48.714;8.994;2023-04-15T13:55:14;2.97;;;2.77;;
6661;SDS011;3367;48.714;8.994;2023-04-15T13:57:41;5.63;;;3.13;;
6661;SDS011;3367;48.714;8.994;2023-04-15T14:00:08;6.73;;;2.90;;
6661;SDS011;3367;48.714;8.994;2023-04-15T14:02:36;4.60;;;2.60;;
6661;SDS011;3367;48.714;8.994;2023-04-15T14:05:04;4.47;;;2.20;;
6661;SDS011;3367;48.714;8.994;2023-04-15T14:07:31;5.20;;;2.67;;
6661;SDS011;3367;48.714;8.994;2023-04-15T14:09:58;2.43;;;2.23;;
6661;SDS011;3367;48.714;8.994;2023-04-15T14:12:25;2.63;;;2.43;;
6661;SDS011;3367;48.714;8.994;2023-04-15T14:14:52;1.87;;;1.33;;
6661;SDS011;3367;48.714;8.994;2023-04-15T14:17:19;5.07;;;1.43;;
6661;SDS011;3367;48.714;8.994;2023-04-15T14:19:46;7.10;;;0.97;;
6661;SDS011;3367;48.714;8.994;2023-04-15T14:22:14;1.53;;;0.97;;
6661;SDS011;3367;48.714;8.994;2023-04-15T14:24:42;2.13;;;1.43;;
6661;SDS011;3367;48.714;8.994;2023-04-15T14:27:09;1.40;;;1.30;;
6661;SDS011;3367;48.714;8.994;2023-04-15T14:29:36;1.47;;;1.20;;
6661;SDS011;3367;48.714;8.994;2023-04-15T14:32:03;1.67;;;1.53;;
6661;SDS011;3367;48.714;8.994;2023-04-15T14:34:30;3.23;;;1.70;;
6661;SDS011;3367;48.714;8.994;2023-04-15T14:36:57;4.03;;;1.77;;
6661;SDS011;3367;48.714;8.994;2023-04-15T14:39:25;1.20;;;1.10;;
6661;SDS011;3367;48.714;8.994;2023-04-15T14:41:52;1.80;;;1.30;;
6661;SDS011;3367;48.714;8.994;2023-04-15T14:44:19;1.93;;;1.80;;
6661;SDS011;3367;48.714;8.994;2023-04-15T14:46:46;3.43;;;1.77;;
6661;SDS011;3367;48.714;8.994;2023-04-15T14:49:12;2.97;;;1.70;;
6661;SDS011;3367;48.714;8.994;2023-04-15T14:51:40;3.23;;;1.80;;
6661;SDS011;3367;48.714;8.994;2023-04-15T14:54:10;5.10;;;1.50;;
6661;SDS011;3367;48.714;8.994;2023-04-15T14:56:38;3.63;;;2.27;;
6661;SDS011;3367;48.714;8.994;2023-04-15T14:59:05;3.03;;;2.40;;
6661;SDS011;3367;48.714;8.994;2023-04-15T15:01:32;1.80;;;1.70;;
6661;SDS011;3367;48.714;8.994;2023-04-15T15:03:59;3.40;;;2.63;;
6661;SDS011;3367;48.714;8.994;2023-04-15T15:06:26;4.03;;;2.00;;
6661;SDS011;3367;48.714;8.994;2023-04-15T15:08:52;2.80;;;2.30;;
6661;SDS011;3367;48.714;8.994;2023-04-15T15:11:19;4.03;;;2.50;;
6661;SDS011;3367;48.714;8.994;2023-04-15T15:13:47;11.17;;;2.53;;
6661;SDS011;3367;48.714;8.994;2023-04-15T15:16:14;4.03;;;2.30;;
6661;SDS011;3367;48.714;8.994;2023-04-15T15:18:41;3.50;;;3.20;;
6661;SDS011;3367;48.714;8.994;2023-04-15T15:21:07;2.67;;;2.47;;
6661;SDS011;3367;48.714;8.994;2023-04-15T15:23:34;2.87;;;2.67;;
6661;SDS011;3367;48.714;8.994;2023-04-15T15:26:01;4.57;;;2.63;;
6661;SDS011;3367;48.714;8.994;2023-04-15T15:28:27;3.47;;;2.40;;
6661;SDS011;3367;48.714;8.994;2023-04-15T15:30:55;2.73;;;2.53;;
6661;SDS011;3367;48.714;8.994;2023-04-15T15:33:22;2.93;;;2.73;;
6661;SDS011;3367;48.714;8.994;2023-04-15T15:35:49;3.30;;;3.00;;
6661;SDS011;3367;48.714;8.994;2023-04-15T15:38:16;3.20;;;2.13;;